createdAt,value
2023-01-12T17:11:55.250Z,7.00
2023-01-12T17:14:29.626Z,7.00
2023-01-12T17:17:07.580Z,6.90
2023-01-12T17:19:44.980Z,6.90
2023-01-12T17:22:18.085Z,6.90
2023-01-12T17:24:51.251Z,6.80
2023-01-12T17:27:24.671Z,6.80
2023-01-12T17:29:57.255Z,6.80
2023-01-12T17:32:30.191Z,6.80
2023-01-12T17:35:05.367Z,6.80
2023-01-12T17:37:37.744Z,6.70
2023-01-12T17:40:11.539Z,6.70
2023-01-12T17:43:02.999Z,6.70
2023-01-12T17:45:43.047Z,6.70
2023-01-12T17:48:19.386Z,6.70
2023-01-12T17:50:51.921Z,6.70
2023-01-12T17:53:24.462Z,6.70
2023-01-12T17:55:57.421Z,6.70
2023-01-12T17:58:30.093Z,6.60
2023-01-12T18:01:11.709Z,6.60
2023-01-12T18:03:44.585Z,6.50
2023-01-12T18:06:25.761Z,6.50
2023-01-12T18:09:00.387Z,6.50
2023-01-12T18:11:34.204Z,6.50
2023-01-12T18:14:07.577Z,6.50
2023-01-12T18:16:40.521Z,6.40
2023-01-12T18:19:15.194Z,6.40
2023-01-12T18:21:50.334Z,6.30
2023-01-12T18:24:23.013Z,6.30
2023-01-12T18:26:55.559Z,6.30
2023-01-12T18:29:28.531Z,6.30
2023-01-12T18:32:01.667Z,6.30
2023-01-12T18:34:35.864Z,6.30
2023-01-12T18:37:08.645Z,6.30
2023-01-12T18:39:44.183Z,6.20
2023-01-12T18:42:33.713Z,6.20
2023-01-12T18:45:06.883Z,6.20
2023-01-12T18:47:54.829Z,6.20
2023-01-12T18:50:44.531Z,6.10
2023-01-12T18:53:26.205Z,6.10
2023-01-12T18:56:01.914Z,6.10
2023-01-12T18:58:37.340Z,6.10
2023-01-12T19:01:18.869Z,6.20
2023-01-12T19:03:53.092Z,6.20
2023-01-12T19:06:40.580Z,6.10
2023-01-12T19:09:28.834Z,6.20
2023-01-12T19:12:02.785Z,6.10
2023-01-12T19:14:50.852Z,6.10
2023-01-12T19:17:30.893Z,6.20
2023-01-12T19:20:16.198Z,6.20
2023-01-12T19:23:04.704Z,6.20
2023-01-12T19:25:53.386Z,6.20
2023-01-12T19:28:36.384Z,6.20
2023-01-12T19:31:11.203Z,6.20
2023-01-12T19:33:43.976Z,6.20
2023-01-12T19:36:16.535Z,6.20
2023-01-12T19:38:51.250Z,6.20
2023-01-12T19:41:38.903Z,6.10
2023-01-12T19:44:11.535Z,6.10
2023-01-12T19:46:44.440Z,6.10
2023-01-12T19:49:19.273Z,6.10
2023-01-12T19:51:51.828Z,6.10
2023-01-12T19:54:24.537Z,6.00
2023-01-12T19:56:57.069Z,6.00
2023-01-12T19:59:29.814Z,6.10
2023-01-12T20:02:02.720Z,6.10
2023-01-12T20:04:35.902Z,6.10
2023-01-12T20:07:09.301Z,6.10
2023-01-12T20:09:42.083Z,6.20
2023-01-12T20:12:16.908Z,6.20
2023-01-12T20:14:49.451Z,6.20
2023-01-12T20:17:22.045Z,6.20
2023-01-12T20:19:54.680Z,6.30
2023-01-12T20:22:27.195Z,6.30
2023-01-12T20:25:01.871Z,6.30
2023-01-12T20:27:35.845Z,6.30
2023-01-12T20:30:11.284Z,6.30
2023-01-12T20:32:44.647Z,6.30
2023-01-12T20:35:20.314Z,6.30
2023-01-12T20:37:53.026Z,6.30
2023-01-12T20:40:25.893Z,6.30
2023-01-12T20:42:58.503Z,6.30
2023-01-12T20:45:31.248Z,6.30
2023-01-12T20:48:03.966Z,6.30
2023-01-12T20:50:36.706Z,6.30
2023-01-12T20:53:11.181Z,6.30
2023-01-12T20:55:46.992Z,6.30
2023-01-12T20:58:19.978Z,6.30
2023-01-12T21:00:53.261Z,6.20
2023-01-12T21:03:25.919Z,6.20
2023-01-12T21:06:00.463Z,6.20
2023-01-12T21:08:33.129Z,6.20
2023-01-12T21:11:05.856Z,6.10
2023-01-12T21:13:38.914Z,6.10
2023-01-12T21:16:15.078Z,6.10
2023-01-12T21:18:48.261Z,6.20
2023-01-12T21:21:20.964Z,6.20
2023-01-12T21:23:53.840Z,6.20
2023-01-12T21:26:26.524Z,6.20
2023-01-12T21:28:59.370Z,6.20
2023-01-12T21:31:31.958Z,6.20
2023-01-12T21:34:04.478Z,6.20
2023-01-12T21:36:37.067Z,6.20
2023-01-12T21:39:09.655Z,6.30
2023-01-12T21:41:57.912Z,6.30
2023-01-12T21:44:30.353Z,6.20
2023-01-12T21:47:02.996Z,6.30
2023-01-12T21:49:35.508Z,6.30
2023-01-12T21:52:09.865Z,6.20
2023-01-12T21:54:42.474Z,6.20
2023-01-12T21:57:15.051Z,6.20
2023-01-12T21:59:47.468Z,6.20
2023-01-12T22:02:20.130Z,6.20
2023-01-12T22:04:53.104Z,6.30
2023-01-12T22:07:27.743Z,6.30
2023-01-12T22:10:19.471Z,6.20
2023-01-12T22:12:55.086Z,6.20
2023-01-12T22:15:29.370Z,6.20
2023-01-12T22:18:02.001Z,6.20
2023-01-12T22:20:34.952Z,6.20
2023-01-12T22:23:07.853Z,6.30
2023-01-12T22:25:40.353Z,6.20
2023-01-12T22:28:13.118Z,6.20
2023-01-12T22:30:45.730Z,6.20
2023-01-12T22:33:18.342Z,6.20
2023-01-12T22:35:50.938Z,6.20
2023-01-12T22:38:23.737Z,6.20
2023-01-12T22:40:56.276Z,6.20
2023-01-12T22:43:29.164Z,6.20
2023-01-12T22:46:01.992Z,6.20
2023-01-12T22:48:34.555Z,6.20
2023-01-12T22:51:08.499Z,6.20
2023-01-12T22:53:41.239Z,6.20
2023-01-12T22:56:13.848Z,6.20
2023-01-12T22:58:49.067Z,6.20
2023-01-12T23:01:25.200Z,6.20
2023-01-12T23:03:58.548Z,6.20
2023-01-12T23:06:30.939Z,6.20
2023-01-12T23:09:04.834Z,6.20
2023-01-12T23:11:38.627Z,6.20
2023-01-12T23:14:11.158Z,6.10
2023-01-12T23:16:43.670Z,6.20
2023-01-12T23:19:16.212Z,6.20
2023-01-12T23:21:48.803Z,6.20
2023-01-12T23:24:21.333Z,6.10
2023-01-12T23:26:54.577Z,6.10
2023-01-12T23:29:27.098Z,6.10
2023-01-12T23:31:59.603Z,6.10
2023-01-12T23:34:32.201Z,6.10
2023-01-12T23:37:04.575Z,6.10
2023-01-12T23:39:40.111Z,6.10
2023-01-12T23:42:12.703Z,6.00
2023-01-12T23:44:45.702Z,6.00
2023-01-12T23:47:19.686Z,6.00
2023-01-12T23:49:52.229Z,6.10
2023-01-12T23:52:24.775Z,6.00
2023-01-12T23:54:58.524Z,6.10
2023-01-12T23:57:31.447Z,6.10
